Ana Sayfa
METAR-TAF:

METAR-TAF

Havaalanları :

Kahramanmaraş Havalimanı

Kahramanmaraş, Türkiye

Enlem: 37-32-20N, Boylam: 036-57-12E, yükseklik: 525 m

Güncel hava durumu gözlemi

Rapor saat 11:50 UTC de 1 saat ve 9 dakika önce yapıldı.
Rüzgar batı/kuzeybatıdan 10 kt, batı/güneybatı ve kuzey/kuzeybatı arasında değişken
Sıcaklık 34°C
Nem 28%
Basınç 1005 hPa
Görüş mesafesi 10 km veya daha fazla
1500 m altında bulut yok ve kümülonimbus yok

METAR: LTCN 201150Z 29010KT 250V340 CAVOK 34/13 Q1005 NOSIG

Saat: 15:59 (12:59 UTC)

Tahmin

Rapor saat 10:40 UTC de 2 saat ve 19 dakika önce yapıldı.
Ayın 20'si saat 12 UTC'den ayın 20'si saat 21 UTC'ye kadar geçerli Tahmin
Rüzgar batıdan 8 kt
Görüş mesafesi 10 km veya daha fazla
1500 m altında bulut yok ve kümülonimbus yok
Dönüşüyor
ayın 20'si saat 13 UTC'den ayın 20'si saat 15 UTC'ye kadar
Rüzgar batıdan 18 kt

TAF: LTCN 201040Z 2012/2021 28008KT CAVOK BECMG 2013/2015 28018KT

4.000'den fazla havaalanı için hava durumu gözlemleri ve tahminleri (METAR ve TAF raporları).

Kullanılabilir istasyonlar harita üzerinde sarı ve kırmızı noktalarla gösterilir.

İstasyonun adını görmek için fareyi noktanın üzerinde gezdirin.

Sonrasında hava gözlem ve tahminlerini görmek için tıklayın.

Haritayı değiştirmek için: yaklaştırmak için siyah artı işaretli yeşil düğmeye ve uzaklaştırmak için de eksi işaretli düğmeye hızla tıklayın; bitişik haritalar için yeşil okları kullanın.


METAR-TAF: